Uruoca, Brazil
Current Conditions -  °F | °C
As of 9:00 AM on Monday 26 Jan 2015 (Local Time) from SBPB Reporting Station
Few Clouds Few Clouds  
Wind Chill: 90°   Ceiling: Unl
Heat Index: 96°   Visibility: 6mi
Dew Point: 72°   Wind: 16mph
Humidity: 55%   Direction: 100°E
Pressure: 29.91"   Gusts: NA
Location:  3.31°S, 40.56°W
Report Text: SBPB 261200Z 10014KT 9999 FEW020 32/22 Q1013
Loading
Personal Weather Stations






























Interactive Weather Map New forecast layout! Learn more

10-Day Weather Forecast

Advertisements
Track Severe Weather on mobile